Time,TemperatureF,DewpointF,PressureIn,WindDirection,WindDirectionDegrees,WindSpeedMPH,WindSpeedGustMPH,Humidity,HourlyPrecipIn,Conditions,Clouds,dailyrainin,SoftwareType,DateUTC
2013-08-24 06:29:00,72.4,69.0,30.01,SSW,203,0.0,0.0,88,0.00,,,0.00,weatherlink.com 1.10,2013-08-24 11:29:00,
2013-08-24 06:34:00,72.3,69.0,30.01,SSW,203,0.0,0.0,89,0.00,,,0.00,weatherlink.com 1.10,2013-08-24 11:34:00,
2013-08-24 06:49:00,72.4,69.0,30.02,South,187,0.0,1.0,89,0.00,,,0.00,weatherlink.com 1.10,2013-08-24 11:49:00,
2013-08-24 07:04:00,72.4,69.0,30.02,SE,136,0.0,1.0,89,0.00,,,0.00,weatherlink.com 1.10,2013-08-24 12:04:00,
2013-08-24 07:19:00,72.8,70.0,30.03,South,191,0.0,1.0,89,0.00,,,0.00,weatherlink.com 1.10,2013-08-24 12:19:00,
2013-08-24 07:36:00,73.9,70.0,30.03,SSE,165,0.0,4.0,87,0.00,,,0.00,weatherlink.com 1.10,2013-08-24 12:36:00,
2013-08-24 07:49:00,74.2,70.0,30.04,SSE,158,1.0,3.0,86,0.00,,,0.00,weatherlink.com 1.10,2013-08-24 12:49:00,
2013-08-24 08:04:00,74.6,70.0,30.04,South,191,0.0,3.0,86,0.00,,,0.00,weatherlink.com 1.10,2013-08-24 13:04:00,
2013-08-24 08:19:00,75.2,71.0,30.04,ESE,103,0.0,5.0,85,0.00,,,0.00,weatherlink.com 1.10,2013-08-24 13:19:00,
2013-08-24 08:35:00,76.0,71.0,30.04,South,184,2.0,4.0,84,0.00,,,0.00,weatherlink.com 1.10,2013-08-24 13:35:00,
2013-08-24 09:02:00,77.9,71.0,30.05,SE,136,0.0,5.0,80,0.00,,,0.00,weatherlink.com 1.10,2013-08-24 14:02:00,
2013-08-24 09:34:00,81.5,73.0,30.05,SE,142,2.0,6.0,74,0.00,,,0.00,weatherlink.com 1.10,2013-08-24 14:34:00,
2013-08-24 09:50:00,83.6,73.0,30.05,SSE,165,1.0,5.0,71,0.00,,,0.00,weatherlink.com 1.10,2013-08-24 14:50:00,
2013-08-24 10:05:00,84.5,73.0,30.05,East,100,2.0,4.0,69,0.00,,,0.00,weatherlink.com 1.10,2013-08-24 15:05:00,
2013-08-24 10:20:00,85.2,73.0,30.05,SE,124,3.0,8.0,67,0.00,,,0.00,weatherlink.com 1.10,2013-08-24 15:20:00,
2013-08-24 10:35:00,86.6,74.0,30.05,ESE,109,0.0,7.0,66,0.00,,,0.00,weatherlink.com 1.10,2013-08-24 15:35:00,
2013-08-24 10:50:00,86.9,74.0,30.05,ESE,121,1.0,4.0,65,0.00,,,0.00,weatherlink.com 1.10,2013-08-24 15:50:00,
2013-08-24 11:05:00,87.7,74.0,30.05,SE,139,1.0,4.0,63,0.00,,,0.00,weatherlink.com 1.10,2013-08-24 16:05:00,
2013-08-24 11:20:00,88.0,74.0,30.05,North,359,0.0,6.0,63,0.00,,,0.00,weatherlink.com 1.10,2013-08-24 16:20:00,
2013-08-24 11:35:00,88.3,74.0,30.05,SE,146,3.0,6.0,62,0.00,,,0.00,weatherlink.com 1.10,2013-08-24 16:35:00,
2013-08-24 11:50:00,88.7,74.0,30.05,SW,222,0.0,8.0,62,0.00,,,0.00,weatherlink.com 1.10,2013-08-24 16:50:00,
2013-08-24 12:06:00,87.6,73.0,30.04,ESE,119,1.0,6.0,63,0.00,,,0.00,weatherlink.com 1.10,2013-08-24 17:06:00,
2013-08-24 12:20:00,88.1,73.0,30.04,North,354,0.0,4.0,62,0.00,,,0.00,weatherlink.com 1.10,2013-08-24 17:20:00,
2013-08-24 12:35:00,89.9,74.0,30.04,SE,136,0.0,6.0,59,0.00,,,0.00,weatherlink.com 1.10,2013-08-24 17:35:00,
2013-08-24 12:50:00,90.9,73.0,30.04,East,100,1.0,8.0,56,0.00,,,0.00,weatherlink.com 1.10,2013-08-24 17:50:00,
2013-08-24 13:15:00,91.5,73.0,30.04,SE,128,0.0,5.0,55,0.00,,,0.00,weatherlink.com 1.10,2013-08-24 18:15:00,
2013-08-24 14:04:00,92.5,73.0,30.03,ESE,121,6.0,7.0,53,0.00,,,0.00,weatherlink.com 1.10,2013-08-24 19:04:00,
2013-08-24 14:21:00,92.4,72.0,30.03,ESE,118,1.0,4.0,51,0.00,,,0.00,weatherlink.com 1.10,2013-08-24 19:21:00,
2013-08-24 15:22:00,92.2,72.0,30.02,North,352,0.0,6.0,51,0.00,,,0.00,weatherlink.com 1.10,2013-08-24 20:22:00,
2013-08-24 15:38:00,91.9,71.0,30.01,SSW,200,1.0,4.0,51,0.00,,,0.00,weatherlink.com 1.10,2013-08-24 20:38:00,
2013-08-24 15:51:00,91.0,70.0,30.01,SE,146,0.0,8.0,51,0.00,,,0.00,weatherlink.com 1.10,2013-08-24 20:51:00,
2013-08-24 16:16:00,90.5,71.0,30.01,SE,125,1.0,6.0,52,0.00,,,0.00,weatherlink.com 1.10,2013-08-24 21:16:00,
2013-08-24 16:51:00,90.0,69.0,30.01,South,190,0.0,5.0,51,0.00,,,0.00,weatherlink.com 1.10,2013-08-24 21:51:00,
2013-08-24 17:06:00,90.0,69.0,30.00,ESE,122,0.0,7.0,51,0.00,,,0.00,weatherlink.com 1.10,2013-08-24 22:06:00,
2013-08-24 17:21:00,89.9,69.0,30.00,SE,135,5.0,6.0,51,0.00,,,0.00,weatherlink.com 1.10,2013-08-24 22:21:00,
2013-08-24 17:36:00,89.7,70.0,30.00,ESE,122,0.0,6.0,53,0.00,,,0.00,weatherlink.com 1.10,2013-08-24 22:36:00,
2013-08-24 17:51:00,89.5,70.0,30.00,ESE,122,0.0,6.0,52,0.00,,,0.00,weatherlink.com 1.10,2013-08-24 22:51:00,
2013-08-24 18:06:00,89.0,70.0,29.99,East,98,0.0,5.0,54,0.00,,,0.00,weatherlink.com 1.10,2013-08-24 23:06:00,
2013-08-24 18:21:00,88.8,71.0,29.99,SSW,194,0.0,3.0,55,0.00,,,0.00,weatherlink.com 1.10,2013-08-24 23:21:00,
2013-08-24 18:36:00,88.3,71.0,29.99,SE,135,1.0,2.0,57,0.00,,,0.00,weatherlink.com 1.10,2013-08-24 23:36:00,
2013-08-24 18:51:00,87.6,71.0,29.98,ESE,115,0.0,5.0,59,0.00,,,0.00,weatherlink.com 1.10,2013-08-24 23:51:00,
2013-08-24 19:16:00,86.1,71.0,29.99,SE,129,0.0,1.0,61,0.00,,,0.00,weatherlink.com 1.10,2013-08-25 00:16:00,
2013-08-24 19:27:00,85.7,71.0,29.99,ESE,115,0.0,1.0,62,0.00,,,0.00,weatherlink.com 1.10,2013-08-25 00:27:00,
2013-08-24 20:14:00,83.4,71.0,30.00,SE,124,0.0,0.0,67,0.00,,,0.00,weatherlink.com 1.10,2013-08-25 01:14:00,
2013-08-24 20:21:00,83.0,70.0,30.00,SE,124,0.0,0.0,66,0.00,,,0.00,weatherlink.com 1.10,2013-08-25 01:21:00,
2013-08-24 20:36:00,82.6,71.0,30.00,SE,139,0.0,1.0,67,0.00,,,0.00,weatherlink.com 1.10,2013-08-25 01:36:00,
2013-08-24 20:51:00,82.2,70.0,30.01,ESE,110,0.0,1.0,66,0.00,,,0.00,weatherlink.com 1.10,2013-08-25 01:51:00,
2013-08-24 21:13:00,81.6,70.0,30.02,SE,124,0.0,0.0,67,0.00,,,0.00,weatherlink.com 1.10,2013-08-25 02:13:00,
2013-08-24 21:21:00,81.5,70.0,30.02,South,174,0.0,1.0,67,0.00,,,0.00,weatherlink.com 1.10,2013-08-25 02:21:00,
2013-08-24 21:36:00,81.1,70.0,30.02,SE,134,0.0,2.0,68,0.00,,,0.00,weatherlink.com 1.10,2013-08-25 02:36:00,
2013-08-24 21:51:00,80.8,70.0,30.02,ESE,109,0.0,0.0,69,0.00,,,0.00,weatherlink.com 1.10,2013-08-25 02:51:00,
2013-08-24 22:06:00,80.4,70.0,30.03,SSW,204,0.0,0.0,70,0.00,,,0.00,weatherlink.com 1.10,2013-08-25 03:06:00,
2013-08-24 22:21:00,80.1,70.0,30.03,SSW,204,0.0,0.0,71,0.00,,,0.00,weatherlink.com 1.10,2013-08-25 03:21:00,
2013-08-24 22:36:00,79.5,70.0,30.03,SE,135,0.0,1.0,73,0.00,,,0.00,weatherlink.com 1.10,2013-08-25 03:36:00,
2013-08-24 22:51:00,79.3,70.0,30.03,SE,136,0.0,0.0,74,0.00,,,0.00,weatherlink.com 1.10,2013-08-25 03:51:00,
2013-08-24 23:06:00,78.7,70.0,30.03,SE,135,0.0,0.0,75,0.00,,,0.00,weatherlink.com 1.10,2013-08-25 04:06:00,